createdAt,value
2019-04-10T00:01:21.229Z,42.40
2019-04-10T00:03:51.706Z,44.83
2019-04-10T00:06:21.981Z,38.07
2019-04-10T00:08:52.787Z,36.87
2019-04-10T00:11:23.340Z,39.00
2019-04-10T00:13:53.642Z,38.80
2019-04-10T00:16:24.506Z,40.67
2019-04-10T00:18:56.031Z,33.90
2019-04-10T00:21:26.712Z,40.17
2019-04-10T00:23:57.708Z,42.83
2019-04-10T00:26:29.929Z,35.63
2019-04-10T00:29:00.544Z,39.97
2019-04-10T00:31:31.780Z,38.10
2019-04-10T00:34:02.164Z,37.07
2019-04-10T00:36:33.184Z,35.40
2019-04-10T00:39:06.459Z,39.10
2019-04-10T00:41:37.011Z,37.70
2019-04-10T00:44:07.790Z,40.00
2019-04-10T00:46:40.102Z,41.73
2019-04-10T00:49:10.339Z,38.10
2019-04-10T00:51:41.947Z,38.90
2019-04-10T00:54:12.152Z,40.67
2019-04-10T00:56:43.347Z,40.70
2019-04-10T00:59:13.565Z,38.60
2019-04-10T01:01:43.857Z,40.00
2019-04-10T01:04:14.155Z,47.87
2019-04-10T01:06:44.386Z,40.10
2019-04-10T01:09:15.387Z,43.13
2019-04-10T01:11:45.784Z,38.23
2019-04-10T01:14:15.918Z,44.73
2019-04-10T01:16:47.278Z,36.23
2019-04-10T01:19:17.626Z,42.87
2019-04-10T01:21:48.119Z,41.00
2019-04-10T01:24:19.558Z,41.20
2019-04-10T01:26:50.051Z,36.90
2019-04-10T01:29:21.730Z,37.10
2019-04-10T01:31:53.115Z,37.40
2019-04-10T01:34:23.325Z,40.43
2019-04-10T01:36:54.580Z,38.38
2019-04-10T01:39:28.648Z,39.27
2019-04-10T01:41:58.791Z,34.67
2019-04-10T01:44:30.920Z,36.07
2019-04-10T01:47:01.253Z,36.40
2019-04-10T01:49:31.573Z,35.70
2019-04-10T01:52:01.789Z,43.20
2019-04-10T01:54:31.972Z,34.73
2019-04-10T01:57:04.095Z,34.80
2019-04-10T01:59:36.166Z,39.13
2019-04-10T02:02:29.464Z,39.13
2019-04-10T02:05:00.673Z,35.57
2019-04-10T02:07:31.918Z,45.17
2019-04-10T02:10:03.678Z,49.42
2019-04-10T02:12:35.250Z,44.53
2019-04-10T02:15:11.239Z,47.93
2019-04-10T02:17:39.423Z,43.47
2019-04-10T02:20:10.490Z,50.23
2019-04-10T02:22:40.787Z,46.70
2019-04-10T02:25:12.080Z,50.67
2019-04-10T02:27:42.691Z,50.80
2019-04-10T02:30:16.395Z,51.27
2019-04-10T02:32:48.239Z,53.43
2019-04-10T02:35:20.272Z,54.67
2019-04-10T02:37:54.963Z,54.03
2019-04-10T02:40:23.681Z,58.13
2019-04-10T02:42:54.759Z,54.77
2019-04-10T02:45:25.965Z,54.37
2019-04-10T02:47:56.605Z,50.20
2019-04-10T02:50:27.349Z,52.97
2019-04-10T02:52:59.249Z,55.70
2019-04-10T02:55:31.384Z,57.60
2019-04-10T02:58:02.596Z,58.27
2019-04-10T03:00:35.891Z,52.57
2019-04-10T03:03:06.528Z,62.43
2019-04-10T03:05:38.286Z,51.00
2019-04-10T03:08:09.352Z,56.90
2019-04-10T03:10:48.614Z,53.20
2019-04-10T03:13:13.741Z,59.07
2019-04-10T03:15:45.453Z,56.07
2019-04-10T03:18:16.756Z,62.83
2019-04-10T03:20:47.404Z,58.48
2019-04-10T03:23:17.712Z,63.07
2019-04-10T03:25:48.834Z,56.10
2019-04-10T03:28:19.241Z,60.50
2019-04-10T03:30:49.627Z,61.83
2019-04-10T03:33:33.727Z,57.87
2019-04-10T03:36:05.277Z,57.27
2019-04-10T03:38:49.666Z,58.07
2019-04-10T03:41:08.137Z,68.37
2019-04-10T03:43:38.348Z,60.10
2019-04-10T03:46:08.930Z,65.57
2019-04-10T03:48:39.270Z,64.73
2019-04-10T03:51:09.647Z,60.73
2019-04-10T03:53:40.354Z,66.53
2019-04-10T03:56:11.718Z,65.33
2019-04-10T03:58:42.073Z,64.60
2019-04-10T04:01:12.314Z,68.33
2019-04-10T04:03:42.700Z,66.47
2019-04-10T04:06:12.936Z,66.87
2019-04-10T04:08:43.691Z,65.43
2019-04-10T04:11:13.824Z,60.93
2019-04-10T04:13:44.084Z,73.03
2019-04-10T04:16:15.027Z,59.90
2019-04-10T04:18:45.711Z,63.37
2019-04-10T04:21:16.055Z,62.73
2019-04-10T04:23:46.848Z,63.30
2019-04-10T04:26:17.195Z,69.83
2019-04-10T04:28:47.370Z,65.80
2019-04-10T04:31:18.116Z,67.63
2019-04-10T04:33:48.965Z,66.67
2019-04-10T04:36:20.486Z,69.23
2019-04-10T04:38:51.414Z,72.87
2019-04-10T04:41:23.173Z,73.53
2019-04-10T04:43:53.446Z,76.10
2019-04-10T04:46:23.994Z,69.53
2019-04-10T04:48:57.739Z,73.77
2019-04-10T04:51:27.950Z,65.17
2019-04-10T04:53:58.998Z,76.07
2019-04-10T04:56:29.486Z,67.30
2019-04-10T04:58:59.967Z,67.70
2019-04-10T05:01:31.721Z,64.13
2019-04-10T05:04:02.432Z,69.00
2019-04-10T05:06:35.057Z,72.37
2019-04-10T05:09:07.669Z,67.37
2019-04-10T05:11:38.547Z,72.57
2019-04-10T05:14:08.785Z,72.20
2019-04-10T05:16:39.541Z,68.30
2019-04-10T05:19:10.225Z,68.10
2019-04-10T05:21:41.501Z,61.47
2019-04-10T05:24:13.714Z,72.13
2019-04-10T05:26:44.840Z,69.00
2019-04-10T05:29:15.500Z,67.90
2019-04-10T05:31:46.610Z,65.67
2019-04-10T05:34:17.791Z,63.80
2019-04-10T05:36:49.142Z,62.30
2019-04-10T05:39:20.565Z,70.07
2019-04-10T05:41:51.077Z,64.05
2019-04-10T05:44:21.489Z,66.93
2019-04-10T05:46:52.683Z,59.70
2019-04-10T05:49:24.673Z,77.83
2019-04-10T05:51:55.621Z,58.97
2019-04-10T05:54:27.080Z,65.33
2019-04-10T05:56:57.397Z,65.30
2019-04-10T05:59:28.074Z,64.97
2019-04-10T06:01:59.161Z,65.03
2019-04-10T06:04:29.555Z,62.63
2019-04-10T06:06:59.675Z,62.70
2019-04-10T06:09:31.158Z,66.43
2019-04-10T06:12:02.318Z,56.43
2019-04-10T06:14:34.505Z,83.77
2019-04-10T06:17:05.996Z,68.13
2019-04-10T06:19:36.490Z,64.77
2019-04-10T06:22:09.645Z,62.60
2019-04-10T06:24:40.430Z,63.80
2019-04-10T06:27:12.361Z,70.97
2019-04-10T06:29:43.471Z,66.33
2019-04-10T06:32:16.965Z,64.17
2019-04-10T06:34:48.114Z,63.73
2019-04-10T06:37:19.035Z,63.95
2019-04-10T06:39:49.424Z,61.40
2019-04-10T06:42:22.752Z,66.13
2019-04-10T06:44:52.933Z,70.80
2019-04-10T06:47:23.068Z,63.65
2019-04-10T06:49:55.352Z,72.60
2019-04-10T06:52:27.016Z,66.72
2019-04-10T06:54:57.435Z,63.53
2019-04-10T06:57:27.771Z,62.47
2019-04-10T06:59:59.756Z,64.17
2019-04-10T07:02:31.579Z,62.13
2019-04-10T07:05:06.250Z,64.63
2019-04-10T07:07:46.546Z,65.40
2019-04-10T07:10:21.415Z,57.20
2019-04-10T07:12:39.924Z,61.73
2019-04-10T07:15:10.682Z,58.37
2019-04-10T07:17:43.191Z,61.92
2019-04-10T07:20:17.624Z,62.10
2019-04-10T07:22:47.160Z,57.00
2019-04-10T07:25:19.619Z,59.37
2019-04-10T07:27:50.295Z,70.60
2019-04-10T07:30:24.156Z,75.12
2019-04-10T07:32:53.073Z,63.10
2019-04-10T07:35:23.802Z,61.37
2019-04-10T07:37:56.686Z,58.13
2019-04-10T07:40:26.126Z,70.43
2019-04-10T07:42:56.719Z,56.27
2019-04-10T07:45:27.349Z,59.87
2019-04-10T07:47:57.878Z,54.80
2019-04-10T07:50:28.693Z,54.00
2019-04-10T07:52:59.839Z,54.53
2019-04-10T07:55:30.938Z,53.73
2019-04-10T07:58:02.690Z,54.00
2019-04-10T08:00:33.075Z,56.37
2019-04-10T08:03:04.171Z,53.00
2019-04-10T08:05:35.432Z,51.95
2019-04-10T08:08:06.004Z,52.10
2019-04-10T08:10:37.360Z,52.30
2019-04-10T08:13:08.594Z,51.20
2019-04-10T08:15:39.104Z,52.47
2019-04-10T08:18:10.062Z,53.60
2019-04-10T08:20:40.391Z,49.03
2019-04-10T08:23:12.204Z,51.43
2019-04-10T08:25:43.121Z,50.53
2019-04-10T08:28:13.625Z,62.73
2019-04-10T08:30:44.062Z,48.07
2019-04-10T08:33:14.421Z,52.20
2019-04-10T08:35:45.453Z,47.77
2019-04-10T08:38:17.234Z,56.90
2019-04-10T08:40:48.223Z,49.27
2019-04-10T08:43:18.752Z,47.67
2019-04-10T08:45:52.073Z,52.70
2019-04-10T08:48:21.955Z,53.50
2019-04-10T08:50:52.610Z,51.03
2019-04-10T08:53:22.839Z,51.17
2019-04-10T08:55:53.028Z,50.30
2019-04-10T08:58:24.957Z,47.73
2019-04-10T09:00:56.597Z,54.07
2019-04-10T09:03:27.142Z,49.33
2019-04-10T09:05:57.354Z,48.67
2019-04-10T09:08:28.765Z,50.07
2019-04-10T09:10:59.535Z,50.60
2019-04-10T09:13:30.669Z,52.57
2019-04-10T09:16:00.955Z,47.97
2019-04-10T09:18:31.558Z,47.43
2019-04-10T09:21:02.776Z,53.10
2019-04-10T09:23:42.548Z,52.50
2019-04-10T09:26:05.860Z,49.37
2019-04-10T09:28:36.091Z,45.77
2019-04-10T09:31:07.356Z,49.93
2019-04-10T09:33:37.658Z,49.00
2019-04-10T09:36:09.041Z,50.23
2019-04-10T09:38:43.927Z,48.03
2019-04-10T09:41:14.036Z,47.33
2019-04-10T09:43:45.610Z,49.77
2019-04-10T09:46:16.282Z,52.80
2019-04-10T09:48:46.430Z,50.90
2019-04-10T09:51:19.447Z,45.20
2019-04-10T09:53:51.015Z,45.40
2019-04-10T09:56:21.502Z,48.23
2019-04-10T09:58:51.981Z,53.43
2019-04-10T10:01:22.251Z,46.10
2019-04-10T10:03:52.829Z,44.30
2019-04-10T10:06:29.908Z,46.47
2019-04-10T10:08:58.457Z,47.23
2019-04-10T10:11:28.750Z,48.20
2019-04-10T10:13:59.191Z,49.40
2019-04-10T10:16:30.352Z,49.20
2019-04-10T10:19:01.606Z,48.60
2019-04-10T10:21:32.469Z,45.07
2019-04-10T10:24:03.138Z,43.97
2019-04-10T10:26:34.390Z,50.30
2019-04-10T10:29:05.171Z,46.37
2019-04-10T10:31:36.069Z,45.57
2019-04-10T10:34:06.514Z,45.00
2019-04-10T10:36:41.932Z,55.03
2019-04-10T10:39:19.380Z,46.73
2019-04-10T10:41:51.244Z,45.90
2019-04-10T10:44:22.031Z,45.07
2019-04-10T10:46:52.302Z,44.05
2019-04-10T10:49:22.572Z,45.20
2019-04-10T10:51:53.297Z,48.23
2019-04-10T10:54:23.555Z,45.83
2019-04-10T10:56:54.936Z,48.70
2019-04-10T10:59:25.426Z,45.87
2019-04-10T11:01:56.074Z,43.30
2019-04-10T11:04:27.421Z,44.90
2019-04-10T11:07:00.902Z,43.27
2019-04-10T11:09:30.185Z,53.90
2019-04-10T11:12:01.727Z,44.47
2019-04-10T11:14:33.036Z,48.10
2019-04-10T11:17:03.444Z,44.13
2019-04-10T11:19:35.535Z,50.43
2019-04-10T11:22:07.631Z,46.30
2019-04-10T11:24:40.747Z,45.63
2019-04-10T11:27:11.605Z,44.23
2019-04-10T11:29:42.648Z,48.33
2019-04-10T11:32:14.393Z,44.05
2019-04-10T11:34:46.567Z,44.60
2019-04-10T11:37:27.099Z,46.37
2019-04-10T11:39:50.797Z,46.17
2019-04-10T11:42:22.603Z,49.80
2019-04-10T11:45:01.873Z,46.63
2019-04-10T11:47:35.410Z,44.53
2019-04-10T11:50:13.407Z,46.93
2019-04-10T11:52:49.004Z,41.97
2019-04-10T11:55:19.895Z,47.83
2019-04-10T11:57:48.945Z,44.77
2019-04-10T12:00:33.266Z,44.60
2019-04-10T12:03:08.735Z,43.60
2019-04-10T12:13:17.996Z,44.63
2019-04-10T12:15:48.449Z,42.50
2019-04-10T12:18:20.130Z,41.43
2019-04-10T12:20:51.537Z,46.00
2019-04-10T12:23:23.134Z,42.25
2019-04-10T12:25:53.805Z,43.90
2019-04-10T12:28:24.206Z,43.23
2019-04-10T12:30:55.489Z,50.73
2019-04-10T12:33:26.260Z,52.27
2019-04-10T12:36:00.394Z,43.57
2019-04-10T12:38:31.909Z,44.80
2019-04-10T12:41:03.444Z,45.38
2019-04-10T12:43:34.753Z,59.03
2019-04-10T12:46:11.372Z,46.40
2019-04-10T12:48:47.215Z,43.90
2019-04-10T12:51:20.136Z,48.20
2019-04-10T12:53:56.143Z,47.53
2019-04-10T12:56:26.947Z,64.13
2019-04-10T12:58:57.493Z,50.73
2019-04-10T13:01:28.910Z,49.20
2019-04-10T13:04:03.748Z,49.63
2019-04-10T13:06:34.163Z,47.50
2019-04-10T13:09:11.507Z,50.30
2019-04-10T13:11:38.958Z,51.98
2019-04-10T13:14:10.468Z,53.27
2019-04-10T13:16:41.372Z,50.97
2019-04-10T13:19:13.166Z,48.63
2019-04-10T13:21:44.400Z,48.37
2019-04-10T13:24:14.810Z,45.95
2019-04-10T13:26:46.117Z,48.53
2019-04-10T13:29:16.315Z,43.87
2019-04-10T13:31:46.765Z,43.40
2019-04-10T13:34:18.232Z,47.87
2019-04-10T13:36:49.283Z,58.30
2019-04-10T13:39:20.409Z,44.33
2019-04-10T13:41:50.695Z,42.20
2019-04-10T13:44:22.357Z,44.83
2019-04-10T13:46:53.197Z,42.08
2019-04-10T13:49:24.058Z,45.10
2019-04-10T13:51:54.398Z,43.47
2019-04-10T13:54:24.801Z,43.33
2019-04-10T13:56:55.306Z,43.10
2019-04-10T13:59:27.559Z,44.63
2019-04-10T14:01:58.472Z,40.73
2019-04-10T14:04:29.878Z,48.10
2019-04-10T14:07:00.521Z,53.67
2019-04-10T14:09:38.758Z,51.40
2019-04-10T14:12:03.999Z,40.97
2019-04-10T14:14:35.089Z,41.00
2019-04-10T14:17:06.937Z,35.08
2019-04-10T14:19:37.667Z,35.80
2019-04-10T14:22:09.278Z,35.28
2019-04-10T14:24:44.740Z,35.57
2019-04-10T14:27:18.282Z,34.25
2019-04-10T14:29:49.103Z,34.07
2019-04-10T14:32:33.418Z,32.73
2019-04-10T14:35:03.768Z,39.33
2019-04-10T14:37:34.208Z,38.23
2019-04-10T14:40:05.680Z,34.10
2019-04-10T14:42:38.265Z,34.53
2019-04-10T14:45:09.316Z,32.20
2019-04-10T14:47:39.757Z,36.50
2019-04-10T14:50:10.491Z,32.47
2019-04-10T14:52:41.142Z,33.90
2019-04-10T14:55:12.459Z,33.87
2019-04-10T14:57:43.264Z,38.03
2019-04-10T15:00:22.419Z,35.50
2019-04-10T15:02:52.636Z,34.13
2019-04-10T15:05:24.374Z,34.63
2019-04-10T15:07:55.357Z,37.87
2019-04-10T15:10:25.833Z,29.63
2019-04-10T15:13:06.950Z,32.10
2019-04-10T15:15:28.498Z,33.23
2019-04-10T15:17:59.032Z,29.03
2019-04-10T15:20:29.591Z,29.60
2019-04-10T15:23:00.834Z,31.00
2019-04-10T15:25:31.608Z,29.70
2019-04-10T15:28:04.359Z,32.93
2019-04-10T15:30:34.746Z,28.00
2019-04-10T15:33:06.623Z,28.90
2019-04-10T15:35:38.358Z,26.87
2019-04-10T15:38:09.480Z,33.40
2019-04-10T15:40:39.959Z,25.83
2019-04-10T15:43:10.866Z,26.90
2019-04-10T15:45:41.514Z,26.90
2019-04-10T15:48:12.505Z,26.83
2019-04-10T15:50:43.459Z,27.50
2019-04-10T15:53:13.916Z,24.47
2019-04-10T15:55:45.310Z,26.87
2019-04-10T15:58:36.442Z,29.87
2019-04-10T16:01:09.775Z,27.57
2019-04-10T16:03:40.786Z,25.50
2019-04-10T16:06:11.190Z,26.90
2019-04-10T16:08:42.703Z,27.20
2019-04-10T16:11:33.876Z,24.80
2019-04-10T16:14:16.857Z,24.93
2019-04-10T16:17:08.855Z,27.47
2019-04-10T16:19:51.391Z,28.53
2019-04-10T16:22:35.194Z,26.07
2019-04-10T16:25:15.985Z,26.37
2019-04-10T16:27:46.456Z,25.57
2019-04-10T16:30:18.832Z,27.97
2019-04-10T16:32:50.103Z,26.80
2019-04-10T16:35:21.093Z,32.23
2019-04-10T16:37:51.833Z,28.00
2019-04-10T16:40:22.700Z,29.92
2019-04-10T16:42:53.391Z,27.17
2019-04-10T16:45:24.525Z,28.70
2019-04-10T16:47:54.763Z,27.47
2019-04-10T16:50:25.889Z,35.07
2019-04-10T16:52:56.232Z,31.00
2019-04-10T16:55:26.910Z,62.83
2019-04-10T16:57:57.512Z,61.67
2019-04-10T17:00:27.765Z,61.87
2019-04-10T17:02:58.018Z,70.10
2019-04-10T17:05:33.671Z,49.37
2019-04-10T17:08:03.950Z,49.00
2019-04-10T17:10:34.622Z,43.40
2019-04-10T17:13:07.301Z,36.00
2019-04-10T17:15:37.794Z,33.02
2019-04-10T17:18:08.718Z,30.57
2019-04-10T17:20:38.924Z,28.03
2019-04-10T17:23:10.021Z,27.20
2019-04-10T17:25:40.562Z,29.60
2019-04-10T17:28:12.202Z,39.93
2019-04-10T17:30:44.128Z,54.17
2019-04-10T17:33:15.031Z,27.00
2019-04-10T17:35:47.520Z,26.07
2019-04-10T17:38:20.425Z,26.53
2019-04-10T17:40:55.101Z,26.67
2019-04-10T17:43:23.630Z,27.60
2019-04-10T17:45:55.165Z,25.70
2019-04-10T17:48:28.048Z,25.63
2019-04-10T17:50:58.331Z,28.83
2019-04-10T17:53:29.396Z,26.27
2019-04-10T17:56:02.120Z,35.13
2019-04-10T17:58:34.427Z,26.80
2019-04-10T18:01:08.370Z,26.53
2019-04-10T18:03:47.277Z,30.40
2019-04-10T18:06:12.686Z,27.77
2019-04-10T18:08:43.216Z,29.30
2019-04-10T18:11:14.171Z,27.57
2019-04-10T18:13:44.980Z,35.00
2019-04-10T18:16:15.714Z,30.63
2019-04-10T18:18:47.300Z,29.07
2019-04-10T18:21:20.317Z,30.13
2019-04-10T18:23:51.488Z,37.40
2019-04-10T18:26:23.678Z,36.43
2019-04-10T18:28:54.378Z,35.73
2019-04-10T18:31:26.461Z,36.03
2019-04-10T18:33:56.728Z,33.10
2019-04-10T18:36:28.400Z,31.03
2019-04-10T18:38:59.697Z,34.20
2019-04-10T18:41:31.835Z,39.05
2019-04-10T18:44:02.649Z,33.23
2019-04-10T18:46:33.392Z,35.90
2019-04-10T18:49:03.811Z,36.00
2019-04-10T18:51:36.230Z,34.87
2019-04-10T18:54:08.092Z,36.00
2019-04-10T18:56:39.286Z,37.73
2019-04-10T18:59:16.422Z,39.27
2019-04-10T19:02:08.350Z,33.93
2019-04-10T19:04:53.667Z,35.13
2019-04-10T19:07:25.108Z,31.60
2019-04-10T19:09:56.643Z,33.33
2019-04-10T19:12:28.658Z,34.57
2019-04-10T19:14:59.317Z,37.50
2019-04-10T19:17:31.016Z,39.53
2019-04-10T19:20:02.161Z,37.80
2019-04-10T19:22:34.729Z,36.10
2019-04-10T19:25:06.155Z,36.60
2019-04-10T19:27:37.120Z,36.60
2019-04-10T19:30:14.959Z,37.03
2019-04-10T19:32:45.836Z,41.73
2019-04-10T19:35:16.982Z,40.80
2019-04-10T19:37:50.401Z,39.40
2019-04-10T19:40:21.219Z,38.13
2019-04-10T19:42:51.917Z,42.17
2019-04-10T19:45:22.366Z,40.50
2019-04-10T19:47:53.032Z,43.85
2019-04-10T19:50:24.119Z,35.80
2019-04-10T19:52:55.085Z,34.43
2019-04-10T19:55:25.381Z,41.80
2019-04-10T19:57:56.016Z,42.53
2019-04-10T20:00:30.955Z,37.93
2019-04-10T20:03:01.578Z,41.33
2019-04-10T20:05:32.200Z,41.33
2019-04-10T20:08:02.993Z,41.57
2019-04-10T20:10:33.791Z,36.93
2019-04-10T20:13:04.780Z,39.13
2019-04-10T20:15:36.300Z,35.17
2019-04-10T20:18:08.571Z,33.37
2019-04-10T20:20:39.897Z,35.67
2019-04-10T20:23:23.664Z,35.90
2019-04-10T20:25:55.392Z,28.73
2019-04-10T20:28:26.830Z,32.17
2019-04-10T20:30:58.087Z,31.27
2019-04-10T20:33:30.597Z,35.27
2019-04-10T20:36:01.222Z,37.77
2019-04-10T20:38:33.394Z,32.60
2019-04-10T20:41:04.626Z,28.50
2019-04-10T20:43:35.327Z,35.73
2019-04-10T20:46:06.599Z,26.80
2019-04-10T20:48:38.355Z,30.57
2019-04-10T20:51:09.285Z,31.73
2019-04-10T20:53:40.251Z,27.83
2019-04-10T20:56:10.800Z,27.60
2019-04-10T20:58:42.133Z,23.80
2019-04-10T21:01:14.457Z,22.30
2019-04-10T21:03:45.388Z,24.23
2019-04-10T21:06:17.505Z,25.60
2019-04-10T21:08:48.200Z,23.90
2019-04-10T21:11:18.722Z,24.07
2019-04-10T21:13:49.101Z,26.33
2019-04-10T21:16:19.900Z,23.53
2019-04-10T21:18:51.829Z,23.53
2019-04-10T21:21:24.330Z,24.65
2019-04-10T21:23:56.482Z,27.13
2019-04-10T21:26:30.496Z,22.30
2019-04-10T21:29:01.028Z,26.70
2019-04-10T21:31:53.257Z,21.87
2019-04-10T21:34:30.472Z,25.47
2019-04-10T21:37:01.772Z,21.07
2019-04-10T21:39:32.134Z,21.30
2019-04-10T21:42:13.129Z,24.10
2019-04-10T21:44:35.214Z,28.90
2019-04-10T21:47:05.551Z,21.45
2019-04-10T21:49:38.025Z,19.80
2019-04-10T21:52:09.728Z,18.53
2019-04-10T21:54:49.787Z,21.67
2019-04-10T21:57:12.454Z,22.50
2019-04-10T21:59:43.180Z,21.43
2019-04-10T22:02:13.490Z,18.43
2019-04-10T22:04:43.752Z,20.13
2019-04-10T22:07:41.995Z,19.87
2019-04-10T22:10:28.064Z,19.17
2019-04-10T22:12:59.501Z,18.43
2019-04-10T22:15:39.427Z,22.93
2019-04-10T22:18:11.167Z,17.50
2019-04-10T22:20:41.681Z,19.50
2019-04-10T22:23:12.254Z,18.80
2019-04-10T22:25:43.724Z,19.00
2019-04-10T22:28:14.953Z,22.63
2019-04-10T22:30:46.607Z,18.50
2019-04-10T22:33:18.116Z,18.73
2019-04-10T22:35:48.429Z,18.00
2019-04-10T22:38:19.410Z,20.13
2019-04-10T22:40:50.364Z,19.83
2019-04-10T22:43:20.829Z,17.80
2019-04-10T22:45:51.036Z,17.60
2019-04-10T22:48:21.203Z,15.90
2019-04-10T22:50:51.508Z,20.87
2019-04-10T22:53:21.725Z,20.40
2019-04-10T22:55:52.834Z,17.30
2019-04-10T22:58:23.052Z,15.20
2019-04-10T23:00:53.896Z,17.30
2019-04-10T23:03:24.478Z,15.83
2019-04-10T23:05:54.867Z,14.00
2019-04-10T23:08:25.417Z,18.70
2019-04-10T23:10:55.743Z,16.43
2019-04-10T23:13:30.095Z,17.90
2019-04-10T23:16:00.423Z,15.33
2019-04-10T23:18:31.743Z,15.03
2019-04-10T23:21:02.345Z,21.30
2019-04-10T23:23:32.851Z,15.50
2019-04-10T23:26:03.111Z,15.63
2019-04-10T23:28:33.758Z,13.50
2019-04-10T23:31:05.689Z,23.73
2019-04-10T23:33:36.583Z,16.00
2019-04-10T23:36:07.684Z,27.43
2019-04-10T23:38:37.909Z,14.43
2019-04-10T23:41:09.386Z,19.70
2019-04-10T23:43:40.058Z,15.10
2019-04-10T23:46:12.763Z,14.17
2019-04-10T23:48:44.706Z,16.50
2019-04-10T23:51:14.838Z,14.77
2019-04-10T23:53:46.698Z,19.45
2019-04-10T23:56:17.755Z,18.40
2019-04-10T23:58:49.204Z,20.48
